createdAt,value
2019-03-17T00:00:43.654Z,56.88
2019-03-17T00:01:43.550Z,56.98
2019-03-17T00:02:43.446Z,56.22
2019-03-17T00:03:43.341Z,56.51
2019-03-17T00:04:43.240Z,57.10
2019-03-17T00:05:43.134Z,57.07
2019-03-17T00:06:43.070Z,57.01
2019-03-17T00:07:42.931Z,56.34
2019-03-17T00:08:42.826Z,56.24
2019-03-17T00:09:42.724Z,56.63
2019-03-17T00:10:42.618Z,56.53
2019-03-17T00:11:42.516Z,56.53
2019-03-17T00:12:42.411Z,56.34
2019-03-17T00:13:42.309Z,56.92
2019-03-17T00:14:42.204Z,56.79
2019-03-17T00:15:42.103Z,57.01
2019-03-17T00:16:41.999Z,57.20
2019-03-17T00:17:42.076Z,57.17
2019-03-17T00:18:41.790Z,56.44
2019-03-17T00:19:41.690Z,56.44
2019-03-17T00:20:41.586Z,55.46
2019-03-17T00:21:41.484Z,56.51
2019-03-17T00:22:41.381Z,57.36
2019-03-17T00:23:41.278Z,56.51
2019-03-17T00:24:41.172Z,56.44
2019-03-17T00:25:41.122Z,56.60
2019-03-17T00:26:41.045Z,56.72
2019-03-17T00:27:40.865Z,57.48
2019-03-17T00:28:40.758Z,56.63
2019-03-17T00:29:40.686Z,56.92
2019-03-17T00:30:40.799Z,56.51
2019-03-17T00:31:40.450Z,57.87
2019-03-17T00:32:40.346Z,56.72
2019-03-17T00:33:40.244Z,57.74
2019-03-17T00:34:44.479Z,57.65
2019-03-17T00:35:40.035Z,56.44
2019-03-17T00:36:39.932Z,56.22
2019-03-17T00:37:39.831Z,57.84
2019-03-17T00:38:39.726Z,57.93
2019-03-17T00:39:39.623Z,57.65
2019-03-17T00:40:39.768Z,56.34
2019-03-17T00:41:39.416Z,57.07
2019-03-17T00:42:39.312Z,58.88
2019-03-17T00:43:39.209Z,59.86
2019-03-17T00:44:39.108Z,57.55
2019-03-17T00:45:39.036Z,57.45
2019-03-17T00:46:38.898Z,57.26
2019-03-17T00:47:38.796Z,56.60
2019-03-17T00:48:38.692Z,56.98
2019-03-17T00:49:38.589Z,57.26
2019-03-17T00:50:38.483Z,56.88
2019-03-17T00:51:38.382Z,56.88
2019-03-17T00:52:38.281Z,57.26
2019-03-17T00:53:38.176Z,57.07
2019-03-17T00:54:38.072Z,57.55
2019-03-17T00:55:37.968Z,57.07
2019-03-17T00:56:37.868Z,57.36
2019-03-17T00:57:37.765Z,57.26
2019-03-17T00:58:37.659Z,57.55
2019-03-17T00:59:37.559Z,58.22
2019-03-17T01:00:37.452Z,56.98
2019-03-17T01:01:37.349Z,57.45
2019-03-17T01:02:37.244Z,58.69
2019-03-17T01:03:37.141Z,59.45
2019-03-17T01:04:37.071Z,59.83
2019-03-17T01:05:37.012Z,56.88
2019-03-17T01:06:36.833Z,60.21
2019-03-17T01:07:36.732Z,58.88
2019-03-17T01:08:36.626Z,60.12
2019-03-17T01:09:36.524Z,61.26
2019-03-17T01:10:36.420Z,60.60
2019-03-17T01:11:36.318Z,59.64
2019-03-17T01:12:36.212Z,59.55
2019-03-17T01:13:36.110Z,60.41
2019-03-17T01:14:36.004Z,63.07
2019-03-17T01:15:35.902Z,61.26
2019-03-17T01:16:35.800Z,60.78
2019-03-17T01:17:35.694Z,63.26
2019-03-17T01:18:35.590Z,62.40
2019-03-17T01:19:35.488Z,62.97
2019-03-17T01:20:35.386Z,64.21
2019-03-17T01:21:35.279Z,64.40
2019-03-17T01:22:35.176Z,64.97
2019-03-17T01:23:35.075Z,62.88
2019-03-17T01:24:35.036Z,62.59
2019-03-17T01:25:34.868Z,61.16
2019-03-17T01:26:34.762Z,64.31
2019-03-17T01:27:34.661Z,66.02
2019-03-17T01:28:34.558Z,63.73
2019-03-17T01:29:34.454Z,64.31
2019-03-17T01:30:34.350Z,64.21
2019-03-17T01:31:34.249Z,65.73
2019-03-17T01:32:34.143Z,64.90
2019-03-17T01:33:34.043Z,64.69
2019-03-17T01:34:33.937Z,66.87
2019-03-17T01:35:33.857Z,65.35
2019-03-17T01:36:33.730Z,64.78
2019-03-17T01:37:33.625Z,67.35
2019-03-17T01:38:33.520Z,66.20
2019-03-17T01:39:33.419Z,67.16
2019-03-17T01:40:33.314Z,68.30
2019-03-17T01:41:33.216Z,67.44
2019-03-17T01:42:33.108Z,67.19
2019-03-17T01:43:33.016Z,66.78
2019-03-17T01:44:32.949Z,66.02
2019-03-17T01:45:32.798Z,67.44
2019-03-17T01:46:32.694Z,67.86
2019-03-17T01:47:32.593Z,67.25
2019-03-17T01:48:32.488Z,66.05
2019-03-17T01:49:32.385Z,68.43
2019-03-17T01:50:32.283Z,68.49
2019-03-17T01:51:32.183Z,65.45
2019-03-17T01:52:32.073Z,67.16
2019-03-17T01:53:31.971Z,68.49
2019-03-17T01:54:31.868Z,66.87
2019-03-17T01:55:31.765Z,65.77
2019-03-17T01:56:31.661Z,68.49
2019-03-17T01:57:31.593Z,67.44
2019-03-17T01:58:31.455Z,67.54
2019-03-17T01:59:31.357Z,67.92
2019-03-17T02:00:31.249Z,65.73
2019-03-17T02:01:31.145Z,65.64
2019-03-17T02:02:31.044Z,65.92
2019-03-17T02:03:31.001Z,69.35
2019-03-17T02:04:30.844Z,65.83
2019-03-17T02:05:30.735Z,65.54
2019-03-17T02:06:30.631Z,65.73
2019-03-17T02:07:30.524Z,70.30
2019-03-17T02:08:30.421Z,70.10
2019-03-17T02:09:30.317Z,69.54
2019-03-17T02:10:30.214Z,70.49
2019-03-17T02:11:30.112Z,69.63
2019-03-17T02:12:30.006Z,68.68
2019-03-17T02:13:29.905Z,70.87
2019-03-17T02:14:29.803Z,69.44
2019-03-17T02:15:29.697Z,68.96
2019-03-17T02:16:29.594Z,70.01
2019-03-17T02:17:29.489Z,73.63
2019-03-17T02:18:29.387Z,70.20
2019-03-17T02:19:29.281Z,69.15
2019-03-17T02:20:29.180Z,69.25
2019-03-17T02:21:29.081Z,73.53
2019-03-17T02:22:28.972Z,70.58
2019-03-17T02:23:28.898Z,74.39
2019-03-17T02:24:28.766Z,72.86
2019-03-17T02:25:28.964Z,71.34
2019-03-17T02:26:28.559Z,69.92
2019-03-17T02:27:28.459Z,69.06
2019-03-17T02:28:28.352Z,69.54
2019-03-17T02:29:28.251Z,70.20
2019-03-17T02:30:28.147Z,70.68
2019-03-17T02:31:28.045Z,70.87
2019-03-17T02:32:27.939Z,72.49
2019-03-17T02:33:27.836Z,72.67
2019-03-17T02:34:27.734Z,73.06
2019-03-17T02:35:38.585Z,72.67
2019-03-17T02:36:27.526Z,73.06
2019-03-17T02:37:27.430Z,73.91
2019-03-17T02:38:27.319Z,72.49
2019-03-17T02:39:27.235Z,72.86
2019-03-17T02:40:27.114Z,73.06
2019-03-17T02:41:27.030Z,72.11
2019-03-17T02:42:26.941Z,73.95
2019-03-17T02:43:26.885Z,73.91
2019-03-17T02:44:26.700Z,76.76
2019-03-17T02:45:26.596Z,74.77
2019-03-17T02:46:26.491Z,76.57
2019-03-17T02:47:26.390Z,77.91
2019-03-17T02:48:26.292Z,74.52
2019-03-17T02:49:26.185Z,75.05
2019-03-17T02:50:26.134Z,78.38
2019-03-17T02:51:25.981Z,76.29
2019-03-17T02:52:25.872Z,75.24
2019-03-17T02:53:25.771Z,74.14
2019-03-17T02:54:25.671Z,76.57
2019-03-17T02:55:25.562Z,78.14
2019-03-17T02:56:25.459Z,76.86
2019-03-17T02:57:25.358Z,76.01
2019-03-17T02:58:25.255Z,77.15
2019-03-17T02:59:25.149Z,79.33
2019-03-17T03:00:25.044Z,79.14
2019-03-17T03:01:24.942Z,78.96
2019-03-17T03:02:25.023Z,78.38
2019-03-17T03:03:24.735Z,77.81
2019-03-17T03:04:24.629Z,77.00
2019-03-17T03:05:24.529Z,79.52
2019-03-17T03:06:24.426Z,80.00
2019-03-17T03:07:24.326Z,79.33
2019-03-17T03:08:24.216Z,77.66
2019-03-17T03:09:24.114Z,78.99
2019-03-17T03:10:24.008Z,79.94
2019-03-17T03:11:23.908Z,79.38
2019-03-17T03:12:23.804Z,79.38
2019-03-17T03:13:23.699Z,80.29
2019-03-17T03:14:23.651Z,77.81
2019-03-17T03:15:23.500Z,81.56
2019-03-17T03:16:23.391Z,78.19
2019-03-17T03:17:23.284Z,81.05
2019-03-17T03:18:23.267Z,81.52
2019-03-17T03:19:23.081Z,79.91
2019-03-17T03:20:22.984Z,80.86
2019-03-17T03:21:22.902Z,81.43
2019-03-17T03:22:22.823Z,81.85
2019-03-17T03:23:22.665Z,82.51
2019-03-17T03:24:22.562Z,79.91
2019-03-17T03:25:22.466Z,80.29
2019-03-17T03:26:22.353Z,80.00
2019-03-17T03:27:22.252Z,80.19
2019-03-17T03:28:22.149Z,80.95
2019-03-17T03:29:22.059Z,80.86
2019-03-17T03:30:21.945Z,79.72
2019-03-17T03:31:21.839Z,79.14
2019-03-17T03:32:21.742Z,79.91
2019-03-17T03:33:21.633Z,80.38
2019-03-17T03:34:21.527Z,79.91
2019-03-17T03:35:21.424Z,80.00
2019-03-17T03:36:21.321Z,81.90
2019-03-17T03:37:21.216Z,81.14
2019-03-17T03:38:21.112Z,80.23
2019-03-17T03:39:21.011Z,79.19
2019-03-17T03:40:21.157Z,81.90
2019-03-17T03:41:20.880Z,81.95
2019-03-17T03:42:20.703Z,82.67
2019-03-17T03:43:20.600Z,80.19
2019-03-17T03:44:20.495Z,82.90
2019-03-17T03:45:20.389Z,80.66
2019-03-17T03:46:20.289Z,81.09
2019-03-17T03:47:20.183Z,81.37
2019-03-17T03:48:20.079Z,81.71
2019-03-17T03:49:19.977Z,82.80
2019-03-17T03:50:19.872Z,81.05
2019-03-17T03:51:19.767Z,80.29
2019-03-17T03:52:19.666Z,82.09
2019-03-17T03:53:19.561Z,83.14
2019-03-17T03:54:19.464Z,79.62
2019-03-17T03:55:19.378Z,83.04
2019-03-17T03:56:19.252Z,79.91
2019-03-17T03:57:19.148Z,82.09
2019-03-17T03:58:19.043Z,81.24
2019-03-17T03:59:18.943Z,81.14
2019-03-17T04:00:19.104Z,81.43
2019-03-17T04:01:18.813Z,79.62
2019-03-17T04:02:18.629Z,80.76
2019-03-17T04:03:18.527Z,81.05
2019-03-17T04:04:18.423Z,79.24
2019-03-17T04:05:18.319Z,78.67
2019-03-17T04:06:26.441Z,83.52
2019-03-17T04:07:18.115Z,80.19
2019-03-17T04:08:18.010Z,81.43
2019-03-17T04:09:17.908Z,78.57
2019-03-17T04:10:17.803Z,79.62
2019-03-17T04:11:17.697Z,80.95
2019-03-17T04:12:17.591Z,80.19
2019-03-17T04:13:17.491Z,80.10
2019-03-17T04:14:17.388Z,80.38
2019-03-17T04:15:17.291Z,81.24
2019-03-17T04:16:17.181Z,79.91
2019-03-17T04:17:17.075Z,80.00
2019-03-17T04:18:16.971Z,77.91
2019-03-17T04:19:16.871Z,80.29
2019-03-17T04:20:17.181Z,80.19
2019-03-17T04:21:16.677Z,80.29
2019-03-17T04:22:16.559Z,81.14
2019-03-17T04:23:16.457Z,80.38
2019-03-17T04:24:16.349Z,80.95
2019-03-17T04:25:16.247Z,78.67
2019-03-17T04:26:16.162Z,78.77
2019-03-17T04:27:16.039Z,79.72
2019-03-17T04:28:15.935Z,78.38
2019-03-17T04:29:15.834Z,79.14
2019-03-17T04:30:15.734Z,79.24
2019-03-17T04:31:15.625Z,76.86
2019-03-17T04:32:15.521Z,79.62
2019-03-17T04:33:15.420Z,78.77
2019-03-17T04:34:15.314Z,78.38
2019-03-17T04:35:15.210Z,77.91
2019-03-17T04:36:15.219Z,81.24
2019-03-17T04:37:15.003Z,80.47
2019-03-17T04:38:14.898Z,81.43
2019-03-17T04:39:14.816Z,78.29
2019-03-17T04:40:14.989Z,79.81
2019-03-17T04:41:14.590Z,80.95
2019-03-17T04:42:14.485Z,80.29
2019-03-17T04:43:14.380Z,79.81
2019-03-17T04:44:20.889Z,80.38
2019-03-17T04:45:14.172Z,79.05
2019-03-17T04:46:14.067Z,79.24
2019-03-17T04:47:13.966Z,78.19
2019-03-17T04:48:13.860Z,81.05
2019-03-17T04:49:13.758Z,79.81
2019-03-17T04:50:13.654Z,78.86
2019-03-17T04:51:13.553Z,78.86
2019-03-17T04:52:13.446Z,80.19
2019-03-17T04:53:13.342Z,80.10
2019-03-17T04:54:13.239Z,80.38
2019-03-17T04:55:13.136Z,80.95
2019-03-17T04:56:13.029Z,80.95
2019-03-17T04:57:12.926Z,79.43
2019-03-17T04:58:12.822Z,79.52
2019-03-17T04:59:12.774Z,79.14
2019-03-17T05:00:12.866Z,79.24
2019-03-17T05:01:12.511Z,80.38
2019-03-17T05:02:13.626Z,80.29
2019-03-17T05:03:12.303Z,79.24
2019-03-17T05:04:12.204Z,79.05
2019-03-17T05:05:12.095Z,80.38
2019-03-17T05:06:11.992Z,79.43
2019-03-17T05:07:11.886Z,79.33
2019-03-17T05:08:11.784Z,80.29
2019-03-17T05:09:11.681Z,80.47
2019-03-17T05:10:11.576Z,82.28
2019-03-17T05:11:11.472Z,80.00
2019-03-17T05:12:11.365Z,79.33
2019-03-17T05:13:11.264Z,79.72
2019-03-17T05:14:11.163Z,80.10
2019-03-17T05:15:11.054Z,81.33
2019-03-17T05:16:10.952Z,79.91
2019-03-17T05:17:10.847Z,79.72
2019-03-17T05:18:10.757Z,78.57
2019-03-17T05:19:10.689Z,78.38
2019-03-17T05:20:10.788Z,81.62
2019-03-17T05:21:10.431Z,81.05
2019-03-17T05:22:10.328Z,80.95
2019-03-17T05:23:10.224Z,79.72
2019-03-17T05:24:10.126Z,79.81
2019-03-17T05:25:10.018Z,80.86
2019-03-17T05:26:09.912Z,81.33
2019-03-17T05:27:09.812Z,80.00
2019-03-17T05:28:09.708Z,82.38
2019-03-17T05:29:09.602Z,82.67
2019-03-17T05:30:09.495Z,81.81
2019-03-17T05:31:09.393Z,81.14
2019-03-17T05:32:09.291Z,82.76
2019-03-17T05:33:09.188Z,80.95
2019-03-17T05:34:09.083Z,81.33
2019-03-17T05:35:08.979Z,81.52
2019-03-17T05:36:08.880Z,82.00
2019-03-17T05:37:08.772Z,82.48
2019-03-17T05:38:08.732Z,82.48
2019-03-17T05:39:08.568Z,83.42
2019-03-17T05:40:08.461Z,82.70
2019-03-17T05:41:08.358Z,83.62
2019-03-17T05:42:08.259Z,83.52
2019-03-17T05:43:08.150Z,82.23
2019-03-17T05:44:08.045Z,82.42
2019-03-17T05:45:07.942Z,84.66
2019-03-17T05:46:07.836Z,81.66
2019-03-17T05:47:07.734Z,82.61
2019-03-17T05:48:07.629Z,83.37
2019-03-17T05:49:07.528Z,83.18
2019-03-17T05:50:07.424Z,82.70
2019-03-17T05:51:07.320Z,84.70
2019-03-17T05:52:07.214Z,83.09
2019-03-17T05:53:07.114Z,83.56
2019-03-17T05:54:07.008Z,84.61
2019-03-17T05:55:06.905Z,83.75
2019-03-17T05:56:06.799Z,84.23
2019-03-17T05:57:06.713Z,83.56
2019-03-17T05:58:06.651Z,82.99
2019-03-17T05:59:06.493Z,82.80
2019-03-17T06:00:06.395Z,84.61
2019-03-17T06:01:06.284Z,84.80
2019-03-17T06:02:06.181Z,83.75
2019-03-17T06:03:06.088Z,83.56
2019-03-17T06:04:05.974Z,84.13
2019-03-17T06:05:05.872Z,83.75
2019-03-17T06:06:05.767Z,85.18
2019-03-17T06:07:17.779Z,85.37
2019-03-17T06:08:05.559Z,84.13
2019-03-17T06:09:05.457Z,84.42
2019-03-17T06:10:05.353Z,85.66
2019-03-17T06:11:05.250Z,84.52
2019-03-17T06:12:05.147Z,85.18
2019-03-17T06:13:05.044Z,85.56
2019-03-17T06:14:04.939Z,85.28
2019-03-17T06:15:04.836Z,86.42
2019-03-17T06:16:04.733Z,85.47
2019-03-17T06:17:04.699Z,84.99
2019-03-17T06:18:04.544Z,86.61
2019-03-17T06:19:04.425Z,85.66
2019-03-17T06:20:04.320Z,85.56
2019-03-17T06:21:04.222Z,84.99
2019-03-17T06:22:04.121Z,86.04
2019-03-17T06:23:04.013Z,85.47
2019-03-17T06:24:03.908Z,86.32
2019-03-17T06:25:04.055Z,85.37
2019-03-17T06:26:03.700Z,85.28
2019-03-17T06:27:03.600Z,87.37
2019-03-17T06:28:03.493Z,84.99
2019-03-17T06:29:03.391Z,85.94
2019-03-17T06:30:03.287Z,85.18
2019-03-17T06:31:03.194Z,85.37
2019-03-17T06:32:03.082Z,87.46
2019-03-17T06:33:02.986Z,85.80
2019-03-17T06:34:02.876Z,87.37
2019-03-17T06:35:02.774Z,85.60
2019-03-17T06:36:02.668Z,86.18
2019-03-17T06:37:02.587Z,85.99
2019-03-17T06:38:02.462Z,86.22
2019-03-17T06:39:02.360Z,85.75
2019-03-17T06:40:02.255Z,88.23
2019-03-17T06:41:04.254Z,87.85
2019-03-17T06:42:02.049Z,85.80
2019-03-17T06:43:01.949Z,86.46
2019-03-17T06:44:01.843Z,87.23
2019-03-17T06:45:01.741Z,86.27
2019-03-17T06:46:01.636Z,86.36
2019-03-17T06:47:01.534Z,86.84
2019-03-17T06:48:01.434Z,86.18
2019-03-17T06:49:01.328Z,87.51
2019-03-17T06:50:01.236Z,87.51
2019-03-17T06:51:01.123Z,86.27
2019-03-17T06:52:01.018Z,86.65
2019-03-17T06:53:00.918Z,88.56
2019-03-17T06:54:00.814Z,86.75
2019-03-17T06:55:00.710Z,87.32
2019-03-17T06:56:00.638Z,87.89
2019-03-17T06:57:00.562Z,87.79
2019-03-17T06:58:00.403Z,87.23
2019-03-17T06:59:00.304Z,88.65
2019-03-17T07:00:00.396Z,88.27
2019-03-17T07:01:00.092Z,87.46
2019-03-17T07:01:59.992Z,88.31
2019-03-17T07:02:59.885Z,86.94
2019-03-17T07:03:59.784Z,87.32
2019-03-17T07:04:59.682Z,87.23
2019-03-17T07:05:59.577Z,86.84
2019-03-17T07:06:59.474Z,87.51
2019-03-17T07:07:59.373Z,87.13
2019-03-17T07:08:59.271Z,87.60
2019-03-17T07:09:59.167Z,87.23
2019-03-17T07:10:59.066Z,88.18
2019-03-17T07:11:58.963Z,86.75
2019-03-17T07:12:58.859Z,86.55
2019-03-17T07:13:58.759Z,87.23
2019-03-17T07:14:58.653Z,88.75
2019-03-17T07:15:58.608Z,87.79
2019-03-17T07:16:58.459Z,87.98
2019-03-17T07:17:58.344Z,87.60
2019-03-17T07:18:58.244Z,87.23
2019-03-17T07:19:58.141Z,87.41
2019-03-17T07:20:58.039Z,85.80
2019-03-17T07:21:57.934Z,86.75
2019-03-17T07:22:57.830Z,87.41
2019-03-17T07:23:57.730Z,85.80
2019-03-17T07:24:57.626Z,86.36
2019-03-17T07:25:57.523Z,87.41
2019-03-17T07:26:57.418Z,86.18
2019-03-17T07:27:57.318Z,85.60
2019-03-17T07:28:57.215Z,85.70
2019-03-17T07:29:57.115Z,85.80
2019-03-17T07:30:57.010Z,87.51
2019-03-17T07:31:56.905Z,85.80
2019-03-17T07:32:56.811Z,85.89
2019-03-17T07:33:56.702Z,87.41
2019-03-17T07:34:56.598Z,86.18
2019-03-17T07:35:56.520Z,85.89
2019-03-17T07:36:56.393Z,86.46
2019-03-17T07:37:57.197Z,86.36
2019-03-17T07:38:56.188Z,87.51
2019-03-17T07:39:56.094Z,86.27
2019-03-17T07:40:55.984Z,85.99
2019-03-17T07:41:55.878Z,85.80
2019-03-17T07:42:55.775Z,85.51
2019-03-17T07:43:55.673Z,86.46
2019-03-17T07:44:55.573Z,86.18
2019-03-17T07:45:55.467Z,86.84
2019-03-17T07:46:55.366Z,86.94
2019-03-17T07:47:55.261Z,88.93
2019-03-17T07:48:55.163Z,87.51
2019-03-17T07:49:55.057Z,87.74
2019-03-17T07:50:54.954Z,88.03
2019-03-17T07:51:54.854Z,89.26
2019-03-17T07:52:54.749Z,87.93
2019-03-17T07:53:54.644Z,88.60
2019-03-17T07:54:54.561Z,87.65
2019-03-17T07:55:54.491Z,89.26
2019-03-17T07:56:54.339Z,87.88
2019-03-17T07:57:54.242Z,89.22
2019-03-17T07:58:54.133Z,89.60
2019-03-17T07:59:54.030Z,89.60
2019-03-17T08:00:53.927Z,89.50
2019-03-17T08:01:53.824Z,89.69
2019-03-17T08:02:53.725Z,89.79
2019-03-17T08:03:53.619Z,88.64
2019-03-17T08:04:53.765Z,90.84
2019-03-17T08:05:53.412Z,89.60
2019-03-17T08:06:53.311Z,89.40
2019-03-17T08:07:53.210Z,91.31
2019-03-17T08:08:53.105Z,89.98
2019-03-17T08:09:53.005Z,89.69
2019-03-17T08:10:52.901Z,89.98
2019-03-17T08:11:52.799Z,89.60
2019-03-17T08:12:52.695Z,91.03
2019-03-17T08:13:52.594Z,90.64
2019-03-17T08:14:52.535Z,91.98
2019-03-17T08:15:52.462Z,90.41
2019-03-17T08:16:52.290Z,91.64
2019-03-17T08:17:52.185Z,92.69
2019-03-17T08:18:52.079Z,90.88
2019-03-17T08:19:52.005Z,91.17
2019-03-17T08:20:51.876Z,91.17
2019-03-17T08:21:51.775Z,92.32
2019-03-17T08:22:51.672Z,91.46
2019-03-17T08:23:51.572Z,92.41
2019-03-17T08:24:51.718Z,92.69
2019-03-17T08:25:51.365Z,92.22
2019-03-17T08:26:51.264Z,91.46
2019-03-17T08:27:51.161Z,90.79
2019-03-17T08:28:51.064Z,93.22
2019-03-17T08:29:50.955Z,92.65
2019-03-17T08:30:53.421Z,93.98
2019-03-17T08:31:50.754Z,94.07
2019-03-17T08:32:50.652Z,92.12
2019-03-17T08:33:50.553Z,92.31
2019-03-17T08:34:50.519Z,92.88
2019-03-17T08:35:50.345Z,92.88
2019-03-17T08:36:50.245Z,94.22
2019-03-17T08:37:50.144Z,93.60
2019-03-17T08:38:50.044Z,93.60
2019-03-17T08:39:49.937Z,93.88
2019-03-17T08:40:49.837Z,91.69
2019-03-17T08:41:49.736Z,93.41
2019-03-17T08:42:49.635Z,93.12
2019-03-17T08:43:54.073Z,93.41
2019-03-17T08:44:49.438Z,93.31
2019-03-17T08:45:49.331Z,92.74
2019-03-17T08:46:49.232Z,92.93
2019-03-17T08:47:57.973Z,93.12
2019-03-17T08:48:49.031Z,93.41
2019-03-17T08:49:48.930Z,92.16
2019-03-17T08:50:48.831Z,93.31
2019-03-17T08:51:48.729Z,93.41
2019-03-17T08:52:48.633Z,92.64
2019-03-17T08:53:48.525Z,91.11
2019-03-17T08:54:48.486Z,92.07
2019-03-17T08:55:48.364Z,92.93
2019-03-17T08:56:48.226Z,92.55
2019-03-17T08:57:48.125Z,94.17
2019-03-17T08:58:48.031Z,93.70
2019-03-17T08:59:47.923Z,92.50
2019-03-17T09:00:47.822Z,92.21
2019-03-17T09:01:47.821Z,92.64
2019-03-17T09:02:47.624Z,91.50
2019-03-17T09:03:47.522Z,93.50
2019-03-17T09:04:47.423Z,92.74
2019-03-17T09:05:47.321Z,92.16
2019-03-17T09:06:47.221Z,93.12
2019-03-17T09:07:47.124Z,92.74
2019-03-17T09:08:47.021Z,94.65
2019-03-17T09:09:46.920Z,92.45
2019-03-17T09:10:46.820Z,93.55
2019-03-17T09:11:46.719Z,91.45
2019-03-17T09:12:46.620Z,94.12
2019-03-17T09:13:46.518Z,92.79
2019-03-17T09:14:46.472Z,92.69
2019-03-17T09:15:46.356Z,91.93
2019-03-17T09:16:46.218Z,92.41
2019-03-17T09:17:46.115Z,92.55
2019-03-17T09:18:46.015Z,91.97
2019-03-17T09:19:45.914Z,91.69
2019-03-17T09:20:45.814Z,92.55
2019-03-17T09:21:45.713Z,93.50
2019-03-17T09:22:45.610Z,91.78
2019-03-17T09:23:45.510Z,92.16
2019-03-17T09:24:45.413Z,92.55
2019-03-17T09:25:45.308Z,93.12
2019-03-17T09:26:45.209Z,92.74
2019-03-17T09:27:45.111Z,92.07
2019-03-17T09:28:45.011Z,94.55
2019-03-17T09:29:44.906Z,92.36
2019-03-17T09:30:44.805Z,94.17
2019-03-17T09:31:44.705Z,93.70
2019-03-17T09:32:44.605Z,91.97
2019-03-17T09:33:44.501Z,93.70
2019-03-17T09:34:44.444Z,92.59
2019-03-17T09:35:44.374Z,92.21
2019-03-17T09:36:44.199Z,93.45
2019-03-17T09:37:44.097Z,94.22
2019-03-17T09:38:47.525Z,93.16
2019-03-17T09:39:44.148Z,94.65
2019-03-17T09:40:43.798Z,92.93
2019-03-17T09:41:43.698Z,93.84
2019-03-17T09:42:43.598Z,92.97
2019-03-17T09:43:43.501Z,93.36
2019-03-17T09:44:43.396Z,93.40
2019-03-17T09:45:43.294Z,93.98
2019-03-17T09:46:43.198Z,93.79
2019-03-17T09:47:43.095Z,93.88
2019-03-17T09:48:42.994Z,92.30
2019-03-17T09:49:42.894Z,94.50
2019-03-17T09:50:42.792Z,94.45
2019-03-17T09:51:42.694Z,94.21
2019-03-17T09:52:42.593Z,94.02
2019-03-17T09:53:42.493Z,92.30
2019-03-17T09:54:42.450Z,93.35
2019-03-17T09:55:42.358Z,92.97
2019-03-17T09:56:42.195Z,93.55
2019-03-17T09:57:42.093Z,93.26
2019-03-17T09:58:41.994Z,93.45
2019-03-17T09:59:42.200Z,93.45
2019-03-17T10:00:41.795Z,91.53
2019-03-17T10:01:41.698Z,93.16
2019-03-17T10:02:41.600Z,93.74
2019-03-17T10:03:41.499Z,93.93
2019-03-17T10:04:41.399Z,93.60
2019-03-17T10:05:41.299Z,92.97
2019-03-17T10:06:41.205Z,93.98
2019-03-17T10:07:41.102Z,93.40
2019-03-17T10:08:41.002Z,93.07
2019-03-17T10:09:40.903Z,93.26
2019-03-17T10:10:40.805Z,93.07
2019-03-17T10:11:40.708Z,93.45
2019-03-17T10:12:40.608Z,92.40
2019-03-17T10:13:40.504Z,92.88
2019-03-17T10:14:40.405Z,92.83
2019-03-17T10:15:40.390Z,93.60
2019-03-17T10:16:40.209Z,93.26
2019-03-17T10:17:40.109Z,92.93
2019-03-17T10:18:40.011Z,93.98
2019-03-17T10:19:40.211Z,93.12
2019-03-17T10:20:39.814Z,92.74
2019-03-17T10:21:39.714Z,93.02
2019-03-17T10:22:39.898Z,93.02
2019-03-17T10:23:39.516Z,92.59
2019-03-17T10:24:39.417Z,93.65
2019-03-17T10:25:39.316Z,92.97
2019-03-17T10:26:39.217Z,92.79
2019-03-17T10:27:39.119Z,93.55
2019-03-17T10:28:39.019Z,94.22
2019-03-17T10:29:38.919Z,92.69
2019-03-17T10:30:38.821Z,93.36
2019-03-17T10:31:38.720Z,93.12
2019-03-17T10:32:38.621Z,93.84
2019-03-17T10:33:38.519Z,93.69
2019-03-17T10:34:38.422Z,93.50
2019-03-17T10:35:38.371Z,93.69
2019-03-17T10:36:38.303Z,94.36
2019-03-17T10:37:38.123Z,93.50
2019-03-17T10:38:38.024Z,94.55
2019-03-17T10:39:38.176Z,93.50
2019-03-17T10:40:37.826Z,93.21
2019-03-17T10:41:37.724Z,93.74
2019-03-17T10:42:37.634Z,92.88
2019-03-17T10:43:37.529Z,94.02
2019-03-17T10:44:37.428Z,92.88
2019-03-17T10:45:37.327Z,93.79
2019-03-17T10:46:37.233Z,93.07
2019-03-17T10:47:37.130Z,93.40
2019-03-17T10:48:37.034Z,93.45
2019-03-17T10:49:36.931Z,93.35
2019-03-17T10:50:48.738Z,93.07
2019-03-17T10:51:36.735Z,92.40
2019-03-17T10:52:36.637Z,93.35
2019-03-17T10:53:36.536Z,92.69
2019-03-17T10:54:36.507Z,92.88
2019-03-17T10:55:36.343Z,93.84
2019-03-17T10:56:36.272Z,93.26
2019-03-17T10:57:36.143Z,93.16
2019-03-17T10:58:36.042Z,93.35
2019-03-17T10:59:35.945Z,93.84
2019-03-17T11:00:35.845Z,93.55
2019-03-17T11:01:35.749Z,92.59
2019-03-17T11:02:35.648Z,93.07
2019-03-17T11:03:35.551Z,92.49
2019-03-17T11:04:35.450Z,92.78
2019-03-17T11:05:35.353Z,92.97
2019-03-17T11:06:35.254Z,93.16
2019-03-17T11:07:35.156Z,92.78
2019-03-17T11:08:35.061Z,92.88
2019-03-17T11:09:34.959Z,93.93
2019-03-17T11:10:34.860Z,93.98
2019-03-17T11:11:34.762Z,93.12
2019-03-17T11:12:34.663Z,93.21
2019-03-17T11:13:34.566Z,93.02
2019-03-17T11:14:34.465Z,93.02
2019-03-17T11:15:34.368Z,93.40
2019-03-17T11:16:34.313Z,92.35
2019-03-17T11:17:34.239Z,94.26
2019-03-17T11:18:34.070Z,92.74
2019-03-17T11:19:34.242Z,94.17
2019-03-17T11:20:33.872Z,94.07
2019-03-17T11:21:33.775Z,93.16
2019-03-17T11:22:33.674Z,93.16
2019-03-17T11:23:33.577Z,93.26
2019-03-17T11:24:33.476Z,92.78
2019-03-17T11:25:33.378Z,93.26
2019-03-17T11:26:33.280Z,93.07
2019-03-17T11:27:33.184Z,92.88
2019-03-17T11:28:33.083Z,92.49
2019-03-17T11:29:32.980Z,92.97
2019-03-17T11:30:32.883Z,92.88
2019-03-17T11:31:32.784Z,92.49
2019-03-17T11:32:32.688Z,92.97
2019-03-17T11:33:32.585Z,92.59
2019-03-17T11:34:32.487Z,92.83
2019-03-17T11:35:32.389Z,92.83
2019-03-17T11:36:32.290Z,92.83
2019-03-17T11:37:32.221Z,92.93
2019-03-17T11:38:32.092Z,92.74
2019-03-17T11:39:37.618Z,92.54
2019-03-17T11:40:31.894Z,93.88
2019-03-17T11:41:31.794Z,92.93
2019-03-17T11:42:31.694Z,92.74
2019-03-17T11:43:31.594Z,92.83
2019-03-17T11:44:31.500Z,93.16
2019-03-17T11:45:31.397Z,93.36
2019-03-17T11:46:31.297Z,92.69
2019-03-17T11:47:31.202Z,93.74
2019-03-17T11:48:31.101Z,93.45
2019-03-17T11:49:31.003Z,93.74
2019-03-17T11:50:30.901Z,92.97
2019-03-17T11:51:30.801Z,94.02
2019-03-17T11:52:30.705Z,93.16
2019-03-17T11:53:30.602Z,93.55
2019-03-17T11:54:30.502Z,93.55
2019-03-17T11:55:31.847Z,94.31
2019-03-17T11:56:30.303Z,94.31
2019-03-17T11:57:30.264Z,94.31
2019-03-17T11:58:30.115Z,92.88
2019-03-17T11:59:30.004Z,93.74
2019-03-17T12:00:29.908Z,92.59
2019-03-17T12:01:29.807Z,94.02
2019-03-17T12:02:29.713Z,93.55
2019-03-17T12:03:29.619Z,93.84
2019-03-17T12:04:29.509Z,93.84
2019-03-17T12:05:29.408Z,93.65
2019-03-17T12:06:29.304Z,93.16
2019-03-17T12:07:29.207Z,93.26
2019-03-17T12:08:29.107Z,94.60
2019-03-17T12:09:29.648Z,94.31
2019-03-17T12:10:28.909Z,93.45
2019-03-17T12:11:28.810Z,92.59
2019-03-17T12:12:28.710Z,94.22
2019-03-17T12:13:28.609Z,93.07
2019-03-17T12:14:28.513Z,93.55
2019-03-17T12:15:28.409Z,93.74
2019-03-17T12:16:28.309Z,93.36
2019-03-17T12:17:28.245Z,93.07
2019-03-17T12:18:28.181Z,94.22
2019-03-17T12:19:28.009Z,93.65
2019-03-17T12:20:27.910Z,93.60
2019-03-17T12:21:27.810Z,94.12
2019-03-17T12:22:27.709Z,94.74
2019-03-17T12:23:27.615Z,94.07
2019-03-17T12:24:27.512Z,93.50
2019-03-17T12:25:27.410Z,93.12
2019-03-17T12:26:27.310Z,93.88
2019-03-17T12:27:27.220Z,92.83
2019-03-17T12:28:27.112Z,93.50
2019-03-17T12:29:27.012Z,93.21
2019-03-17T12:30:26.912Z,93.74
2019-03-17T12:31:26.814Z,93.36
2019-03-17T12:32:26.712Z,92.97
2019-03-17T12:33:26.615Z,93.36
2019-03-17T12:34:28.451Z,93.55
2019-03-17T12:35:26.417Z,94.22
2019-03-17T12:36:26.323Z,92.59
2019-03-17T12:37:26.216Z,93.93
2019-03-17T12:38:26.154Z,93.93
2019-03-17T12:39:26.015Z,93.55
2019-03-17T12:40:25.917Z,94.31
2019-03-17T12:41:25.817Z,94.60
2019-03-17T12:42:25.720Z,93.45
2019-03-17T12:43:25.621Z,94.41
2019-03-17T12:44:25.769Z,94.79
2019-03-17T12:45:25.421Z,93.84
2019-03-17T12:46:25.318Z,94.41
2019-03-17T12:47:25.218Z,93.12
2019-03-17T12:48:25.120Z,93.31
2019-03-17T12:49:25.019Z,93.41
2019-03-17T12:50:24.919Z,92.16
2019-03-17T12:51:24.819Z,93.79